Time;durP1;ratioP1;P1;durP2;ratioP2;P2;SDS_P1;SDS_P2;PMS_P1;PMS_P2;Temp;Humidity;BMP_temperature;BMP_pressure;BME280_temperature;BME280_humidity;BME280_pressure;Samples;Min_cycle;Max_cycle;Signal;HPM_P1;HPM_P2
2022/07/14 00:02:22;;;;;;;3.67;1.20;;;13.10;99.90;;;;;;5054011;28;20021;-93
2022/07/14 00:04:48;;;;;;;8.25;1.40;;;13.20;99.90;;;;;;5051723;28;20124;-92
2022/07/14 00:07:14;;;;;;;4.80;1.33;;;13.20;99.90;;;;;;5054196;28;20096;-93
2022/07/14 00:09:40;;;;;;;3.35;1.33;;;13.20;99.90;;;;;;5054842;28;20072;-94
2022/07/14 00:12:06;;;;;;;3.05;1.20;;;13.20;99.90;;;;;;5051552;28;20038;-93
2022/07/14 00:14:32;;;;;;;4.50;1.13;;;13.30;99.90;;;;;;5050175;28;20040;-91
2022/07/14 00:16:58;;;;;;;4.50;1.40;;;13.30;99.90;;;;;;5053168;28;20035;-91
2022/07/14 00:19:23;;;;;;;2.85;1.08;;;13.30;99.90;;;;;;5053528;28;20028;-93
2022/07/14 00:21:49;;;;;;;5.68;1.45;;;13.40;99.90;;;;;;5053548;28;20028;-92
2022/07/14 00:24:15;;;;;;;2.65;1.10;;;13.40;99.90;;;;;;5053523;28;20064;-91
2022/07/14 00:26:40;;;;;;;2.60;1.02;;;13.40;99.90;;;;;;5053492;28;20025;-93
2022/07/14 00:29:07;;;;;;;2.40;1.17;;;13.40;99.90;;;;;;5053732;28;20530;-91
2022/07/14 00:31:33;;;;;;;3.00;1.30;;;13.30;99.90;;;;;;5063830;28;20032;-93
2022/07/14 00:34:00;;;;;;;4.82;1.38;;;13.30;99.90;;;;;;5054787;28;20495;-92
2022/07/14 00:36:27;;;;;;;1.52;1.25;;;13.20;99.90;;;;;;5058898;28;20029;-93
2022/07/14 00:38:54;;;;;;;6.30;1.25;;;13.20;99.90;;;;;;5072760;28;20047;-91
2022/07/14 00:41:20;;;;;;;3.30;1.10;;;13.10;99.90;;;;;;5053037;28;20032;-91
2022/07/14 00:43:46;;;;;;;5.00;2.05;;;13.10;99.90;;;;;;5073351;28;20032;-92
2022/07/14 00:46:12;;;;;;;2.45;1.85;;;13.00;99.90;;;;;;5071283;28;20032;-91
2022/07/14 00:48:37;;;;;;;2.00;1.25;;;13.00;99.90;;;;;;5071450;28;20020;-91
2022/07/14 00:51:03;;;;;;;5.90;1.52;;;12.90;99.90;;;;;;5069615;28;20039;-91
2022/07/14 00:53:29;;;;;;;2.05;1.35;;;12.90;99.90;;;;;;5068056;28;20025;-91
2022/07/14 00:55:55;;;;;;;3.25;1.38;;;12.80;99.90;;;;;;5064470;28;20025;-93
2022/07/14 00:58:21;;;;;;;6.30;1.60;;;12.70;99.90;;;;;;5061968;28;20044;-93
2022/07/14 01:00:47;;;;;;;3.72;1.40;;;12.60;99.90;;;;;;5059711;28;20486;-91
2022/07/14 01:03:13;;;;;;;3.38;1.67;;;12.40;99.90;;;;;;5055094;28;20021;-92
2022/07/14 01:05:39;;;;;;;3.80;1.77;;;12.30;99.90;;;;;;5056640;28;20079;-92
2022/07/14 01:08:05;;;;;;;6.53;1.55;;;12.20;99.90;;;;;;5054362;28;20041;-90
2022/07/14 01:10:31;;;;;;;3.67;1.63;;;12.10;99.90;;;;;;5054556;28;20021;-93
2022/07/14 01:13:01;;;;;;;5.18;1.70;;;12.10;99.90;;;;;;5051161;28;20111;-92
2022/07/14 01:15:27;;;;;;;7.00;2.00;;;12.10;99.90;;;;;;5054245;28;20029;-93
2022/07/14 01:17:53;;;;;;;3.47;1.50;;;12.10;99.90;;;;;;5053233;28;20059;-93
2022/07/14 01:20:19;;;;;;;2.53;1.58;;;12.00;99.90;;;;;;5053414;28;20041;-92
2022/07/14 01:22:49;;;;;;;2.35;1.55;;;11.90;99.90;;;;;;5053562;28;20024;-92
2022/07/14 01:25:19;;;;;;;6.22;1.60;;;11.90;99.90;;;;;;5053383;28;20021;-92
2022/07/14 01:27:45;;;;;;;4.07;1.70;;;11.90;99.90;;;;;;5052962;28;20051;-93
2022/07/14 01:30:11;;;;;;;1.88;1.23;;;11.80;99.90;;;;;;5053242;28;20164;-92
2022/07/14 01:32:37;;;;;;;4.82;1.77;;;11.90;99.90;;;;;;5054874;28;20041;-92
2022/07/14 01:35:04;;;;;;;2.17;1.50;;;11.80;99.90;;;;;;5052884;28;20064;-93
2022/07/14 01:37:30;;;;;;;2.13;1.40;;;11.80;99.90;;;;;;5051693;28;20013;-93
2022/07/14 01:39:56;;;;;;;3.70;1.50;;;11.80;99.90;;;;;;5051668;28;20021;-92
2022/07/14 01:42:21;;;;;;;4.18;1.35;;;11.80;99.90;;;;;;5052428;28;20074;-94
2022/07/14 01:44:47;;;;;;;4.60;1.50;;;11.80;99.90;;;;;;5073365;28;20017;-91
2022/07/14 01:47:16;;;;;;;2.30;1.40;;;11.80;99.90;;;;;;5068217;28;20065;-92
2022/07/14 01:49:41;;;;;;;4.47;1.70;;;11.70;99.90;;;;;;5052540;28;20031;-92
2022/07/14 01:52:07;;;;;;;6.70;1.95;;;11.70;99.90;;;;;;5052596;28;20411;-93
2022/07/14 01:54:33;;;;;;;3.38;1.40;;;11.60;99.90;;;;;;5052155;28;20052;-91
2022/07/14 01:56:59;;;;;;;4.88;1.65;;;11.50;99.90;;;;;;5052715;28;20028;-92
2022/07/14 01:59:25;;;;;;;5.00;1.40;;;11.60;99.90;;;;;;5052764;28;20028;-93
2022/07/14 02:01:51;;;;;;;5.68;1.40;;;11.60;99.90;;;;;;5052855;28;20025;-93
2022/07/14 02:04:18;;;;;;;5.00;1.58;;;11.60;99.90;;;;;;5049168;28;20028;-92
2022/07/14 02:06:52;;;;;;;3.85;1.35;;;11.60;99.90;;;;;;5050856;28;20098;-92
2022/07/14 02:09:19;;;;;;;5.85;2.13;;;11.60;99.90;;;;;;5048555;28;20024;-92
2022/07/14 02:14:31;;;;;;;5.22;1.58;;;11.50;99.90;;;;;;5045889;28;20120;-93
2022/07/14 02:16:57;;;;;;;4.80;1.63;;;11.50;99.90;;;;;;5048578;28;20033;-91
2022/07/14 02:19:24;;;;;;;3.90;1.77;;;11.50;99.90;;;;;;5052251;28;20090;-92
2022/07/14 02:21:53;;;;;;;3.45;1.60;;;11.50;99.90;;;;;;5051403;28;20468;-93
2022/07/14 02:24:20;;;;;;;2.97;1.40;;;11.50;99.90;;;;;;5048722;28;20543;-91
2022/07/14 02:26:46;;;;;;;2.42;1.40;;;11.50;99.90;;;;;;5050840;28;20124;-92
2022/07/14 02:29:12;;;;;;;7.25;1.52;;;11.50;99.90;;;;;;5050843;28;20526;-92
2022/07/14 02:31:38;;;;;;;3.08;1.65;;;11.50;99.90;;;;;;5055186;28;20020;-92
2022/07/14 02:34:04;;;;;;;2.65;1.70;;;11.50;99.90;;;;;;5061863;28;20025;-92
2022/07/14 02:36:30;;;;;;;2.85;1.23;;;11.50;99.90;;;;;;5059823;28;20029;-90
2022/07/14 02:38:57;;;;;;;6.97;1.60;;;11.40;99.90;;;;;;5057860;28;20025;-88
2022/07/14 02:41:23;;;;;;;5.05;1.60;;;11.40;99.90;;;;;;5064246;28;20024;-92
2022/07/14 02:43:49;;;;;;;3.25;1.48;;;11.40;99.90;;;;;;5057049;28;20168;-91
2022/07/14 02:46:15;;;;;;;4.78;1.88;;;11.30;99.90;;;;;;5051628;28;20408;-91
2022/07/14 02:48:40;;;;;;;1.95;1.50;;;11.20;99.90;;;;;;5051682;28;20056;-91
2022/07/14 02:51:08;;;;;;;4.10;1.65;;;11.20;99.90;;;;;;5051112;28;20027;-92
2022/07/14 02:53:35;;;;;;;3.47;1.77;;;11.20;99.90;;;;;;5051303;28;20029;-92
2022/07/14 02:56:02;;;;;;;3.47;1.58;;;11.20;99.90;;;;;;5052022;28;20029;-91
2022/07/14 02:58:28;;;;;;;5.35;2.00;;;11.20;99.90;;;;;;5056525;28;20626;-92
2022/07/14 03:00:54;;;;;;;5.00;2.20;;;11.20;99.90;;;;;;5057604;28;20021;-92
2022/07/14 03:03:21;;;;;;;3.60;1.75;;;11.10;99.90;;;;;;5056103;28;20040;-90
2022/07/14 03:05:47;;;;;;;4.53;1.95;;;11.10;99.90;;;;;;5055529;28;20056;-91
2022/07/14 03:08:13;;;;;;;6.65;2.80;;;11.00;99.90;;;;;;5053910;28;20037;-90
2022/07/14 03:10:39;;;;;;;2.10;1.58;;;11.00;99.90;;;;;;5051293;28;20033;-92
2022/07/14 03:13:06;;;;;;;4.72;1.90;;;11.00;99.90;;;;;;5050085;28;20036;-91
2022/07/14 03:15:32;;;;;;;2.50;1.50;;;11.00;99.90;;;;;;5050560;28;20013;-92
2022/07/14 03:17:58;;;;;;;3.42;2.08;;;11.00;99.90;;;;;;5053032;28;20048;-91
2022/07/14 03:20:24;;;;;;;6.53;1.98;;;11.00;99.90;;;;;;5054175;28;20391;-93
2022/07/14 03:22:50;;;;;;;3.58;1.77;;;11.10;99.90;;;;;;5054346;28;20037;-93
2022/07/14 03:25:16;;;;;;;3.20;1.88;;;11.10;99.90;;;;;;5027024;28;20018;-92
2022/07/14 03:27:46;;;;;;;2.58;1.92;;;11.10;99.90;;;;;;5053997;28;20040;-91
2022/07/14 03:30:12;;;;;;;5.50;1.73;;;11.10;99.90;;;;;;5054177;28;20051;-92
2022/07/14 03:32:38;;;;;;;3.28;1.65;;;11.10;99.90;;;;;;5051127;28;20021;-92
2022/07/14 03:35:07;;;;;;;2.17;1.60;;;11.10;99.90;;;;;;5053972;28;20049;-90
2022/07/14 03:37:33;;;;;;;4.97;1.70;;;11.10;99.90;;;;;;5053986;28;20075;-91
2022/07/14 03:39:59;;;;;;;3.72;1.55;;;11.10;99.90;;;;;;5054119;28;20529;-92
2022/07/14 03:42:25;;;;;;;4.40;1.60;;;11.10;99.90;;;;;;5053696;28;20119;-92
2022/07/14 03:44:50;;;;;;;3.03;1.50;;;11.10;99.90;;;;;;5054047;28;20033;-92
2022/07/14 03:47:16;;;;;;;3.28;1.67;;;11.10;99.90;;;;;;5053742;28;20033;-93
2022/07/14 03:49:42;;;;;;;6.43;2.10;;;11.10;99.90;;;;;;5053419;28;20040;-92
2022/07/14 03:52:09;;;;;;;3.45;1.50;;;11.20;99.90;;;;;;5053555;28;20029;-92
2022/07/14 03:54:35;;;;;;;2.28;1.45;;;11.20;99.90;;;;;;5053495;28;20021;-91
2022/07/14 03:57:00;;;;;;;3.70;1.52;;;11.20;99.90;;;;;;5053581;28;20075;-92
2022/07/14 03:59:26;;;;;;;3.85;1.80;;;11.20;99.90;;;;;;5053831;28;20035;-92
2022/07/14 04:01:52;;;;;;;4.80;1.30;;;11.20;99.90;;;;;;5053237;28;20448;-91
2022/07/14 04:04:17;;;;;;;3.72;1.85;;;11.20;99.90;;;;;;5052973;28;20376;-92
2022/07/14 04:06:43;;;;;;;3.13;1.70;;;11.20;99.90;;;;;;5053563;28;20064;-92
2022/07/14 04:09:09;;;;;;;5.10;1.80;;;11.30;99.90;;;;;;5053693;28;20040;-90
2022/07/14 04:11:34;;;;;;;4.47;2.00;;;11.30;99.90;;;;;;5053305;28;20027;-91
2022/07/14 04:14:00;;;;;;;5.65;1.75;;;11.30;99.90;;;;;;5048289;28;20671;-92
2022/07/14 04:16:27;;;;;;;4.43;1.55;;;11.40;99.90;;;;;;5051788;28;20051;-91
2022/07/14 04:18:52;;;;;;;5.47;1.88;;;11.30;99.90;;;;;;5052958;28;20041;-92
2022/07/14 04:21:18;;;;;;;2.58;1.80;;;11.30;99.90;;;;;;5052767;28;20404;-92
2022/07/14 04:23:44;;;;;;;2.40;1.60;;;11.30;99.90;;;;;;5052946;28;20017;-91
2022/07/14 04:26:10;;;;;;;1.85;1.45;;;11.30;99.90;;;;;;5053584;28;20082;-91
2022/07/14 04:28:36;;;;;;;2.17;1.60;;;11.40;99.90;;;;;;5051830;28;20048;-92
2022/07/14 04:31:02;;;;;;;5.50;1.80;;;11.40;99.90;;;;;;5053390;28;20482;-93
2022/07/14 04:33:28;;;;;;;2.78;1.42;;;11.50;99.90;;;;;;5055919;28;20029;-89
2022/07/14 04:35:54;;;;;;;2.13;1.48;;;11.60;99.90;;;;;;5061976;28;20036;-92
2022/07/14 04:38:20;;;;;;;2.28;1.52;;;11.70;99.90;;;;;;5056481;28;20472;-90
2022/07/14 04:40:51;;;;;;;6.57;1.73;;;11.80;99.90;;;;;;5065779;28;20088;-92
2022/07/14 04:43:17;;;;;;;1.65;1.30;;;11.90;99.90;;;;;;5063567;28;20040;-90
2022/07/14 04:45:43;;;;;;;4.38;1.85;;;12.00;99.90;;;;;;5064277;28;20033;-92
2022/07/14 04:48:09;;;;;;;4.53;1.60;;;12.10;99.90;;;;;;5059711;28;20152;-90
2022/07/14 04:53:19;;;;;;;3.05;1.70;;;12.20;99.90;;;;;;5052155;28;20064;-93
2022/07/14 04:55:44;;;;;;;9.18;1.70;;;12.30;99.90;;;;;;5053512;28;20041;-92
2022/07/14 04:58:10;;;;;;;2.72;1.38;;;12.30;99.90;;;;;;5053558;28;20033;-91
2022/07/14 05:00:36;;;;;;;3.42;1.50;;;12.40;99.90;;;;;;5052708;28;20123;-91
2022/07/14 05:03:02;;;;;;;2.08;1.50;;;12.50;99.90;;;;;;5052139;28;20021;-92
2022/07/14 05:05:28;;;;;;;6.18;1.85;;;12.50;99.90;;;;;;5053141;28;20025;-92
2022/07/14 05:07:54;;;;;;;6.28;1.67;;;12.70;99.90;;;;;;5052758;28;20420;-92
2022/07/14 05:10:20;;;;;;;2.72;1.55;;;12.80;99.90;;;;;;5052908;28;20025;-92
2022/07/14 05:12:46;;;;;;;3.30;1.67;;;12.90;99.90;;;;;;5052954;28;20036;-92
2022/07/14 05:15:11;;;;;;;4.90;1.33;;;13.00;99.90;;;;;;5053545;28;20155;-92
2022/07/14 05:17:37;;;;;;;5.32;1.52;;;13.10;99.90;;;;;;5053967;28;20393;-93
2022/07/14 05:20:03;;;;;;;3.28;1.58;;;13.20;99.90;;;;;;5054631;28;20028;-91
2022/07/14 05:22:40;;;;;;;5.63;1.60;;;13.30;99.90;;;;;;5054876;28;20425;-93
2022/07/14 05:25:11;;;;;;;5.68;1.70;;;13.30;99.90;;;;;;5062852;28;20033;-93
2022/07/14 05:27:38;;;;;;;3.10;1.40;;;13.40;99.90;;;;;;5061073;28;20071;-92
2022/07/14 05:30:09;;;;;;;6.30;2.00;;;13.50;99.90;;;;;;5062221;28;20041;-92
2022/07/14 05:32:35;;;;;;;4.47;1.58;;;13.60;99.90;;;;;;5061777;28;20033;-93
2022/07/14 05:35:01;;;;;;;3.90;1.55;;;13.70;99.90;;;;;;5068966;28;20029;-92
2022/07/14 05:37:27;;;;;;;3.92;1.70;;;13.80;99.90;;;;;;5068434;28;20005;-88
2022/07/14 05:39:53;;;;;;;6.13;1.50;;;13.90;99.90;;;;;;5075843;28;20049;-89
2022/07/14 05:42:19;;;;;;;4.18;1.67;;;13.90;99.90;;;;;;5074628;28;20047;-89
2022/07/14 05:44:45;;;;;;;6.60;1.60;;;14.00;99.90;;;;;;5075691;28;20039;-90
2022/07/14 05:47:11;;;;;;;3.72;1.50;;;14.10;99.90;;;;;;5074826;28;20060;-89
2022/07/14 05:49:39;;;;;;;4.18;1.90;;;14.20;99.90;;;;;;5070364;28;20031;-93
2022/07/14 05:52:05;;;;;;;6.90;1.67;;;14.30;99.90;;;;;;5062567;28;20040;-91
2022/07/14 05:54:31;;;;;;;6.05;1.60;;;14.30;99.90;;;;;;5059125;28;20017;-91
2022/07/14 05:56:57;;;;;;;4.63;1.70;;;14.30;99.90;;;;;;5055409;28;20025;-92
2022/07/14 05:59:23;;;;;;;4.65;1.67;;;14.40;99.90;;;;;;5057524;28;20021;-91
2022/07/14 06:01:49;;;;;;;4.78;1.70;;;14.50;99.90;;;;;;5056793;28;20017;-91
2022/07/14 06:04:15;;;;;;;7.95;3.08;;;14.50;99.90;;;;;;5057673;28;20033;-90
2022/07/14 06:06:46;;;;;;;4.05;2.10;;;14.60;99.90;;;;;;5058103;28;20028;-89
2022/07/14 06:09:12;;;;;;;4.03;2.00;;;14.60;99.90;;;;;;5058530;28;20021;-89
2022/07/14 06:11:41;;;;;;;6.95;2.45;;;14.60;99.90;;;;;;5053470;28;20049;-92
2022/07/14 06:14:07;;;;;;;6.85;2.42;;;14.70;99.90;;;;;;5056155;28;20025;-90
2022/07/14 06:16:34;;;;;;;6.05;2.00;;;14.60;99.90;;;;;;5062509;28;20029;-88
2022/07/14 06:19:00;;;;;;;4.65;2.40;;;14.60;99.90;;;;;;5070241;28;20031;-92
2022/07/14 06:21:26;;;;;;;2.72;1.92;;;14.70;99.90;;;;;;5067605;28;20017;-92
2022/07/14 06:23:51;;;;;;;9.70;3.00;;;14.70;99.90;;;;;;5065389;28;20540;-93
2022/07/14 06:26:17;;;;;;;8.65;2.47;;;14.70;99.90;;;;;;5058803;28;20013;-93
2022/07/14 06:28:43;;;;;;;11.63;3.03;;;14.70;99.90;;;;;;5056115;28;20041;-92
2022/07/14 06:31:09;;;;;;;7.40;2.35;;;14.70;99.90;;;;;;5055238;28;20036;-94
2022/07/14 06:33:35;;;;;;;8.15;2.60;;;14.70;99.90;;;;;;5056200;28;20021;-93
2022/07/14 06:36:02;;;;;;;8.32;2.90;;;14.80;99.90;;;;;;5057648;28;20116;-88
2022/07/14 06:38:28;;;;;;;11.25;3.00;;;14.90;99.90;;;;;;5063431;28;20025;-92
2022/07/14 06:40:53;;;;;;;4.20;2.67;;;15.00;99.90;;;;;;5054268;28;20021;-93
2022/07/14 06:43:19;;;;;;;8.40;2.95;;;15.00;99.90;;;;;;5049502;28;20048;-92
2022/07/14 06:45:45;;;;;;;5.32;3.15;;;15.00;99.90;;;;;;5052528;28;20040;-95
2022/07/14 06:48:11;;;;;;;7.72;2.95;;;15.10;99.90;;;;;;5052286;28;20048;-92
2022/07/14 06:50:37;;;;;;;7.32;3.08;;;15.20;99.90;;;;;;5052984;28;20051;-92
2022/07/14 06:53:03;;;;;;;8.30;3.05;;;15.30;99.90;;;;;;5058934;28;20024;-91
2022/07/14 06:55:28;;;;;;;11.10;3.75;;;15.30;99.90;;;;;;5058255;28;20106;-91
2022/07/14 06:57:54;;;;;;;6.40;3.47;;;15.40;99.90;;;;;;5057607;28;20129;-91
2022/07/14 07:00:20;;;;;;;6.85;3.03;;;15.50;99.90;;;;;;5059144;28;20100;-92
2022/07/14 07:02:46;;;;;;;12.30;2.97;;;15.50;99.90;;;;;;5062051;28;20059;-91
2022/07/14 07:07:57;;;;;;;10.15;2.88;;;15.60;99.90;;;;;;5059613;28;20067;-93
2022/07/14 07:10:23;;;;;;;5.15;2.83;;;15.60;99.90;;;;;;5064464;28;20020;-91
2022/07/14 07:12:49;;;;;;;9.43;3.45;;;15.70;99.90;;;;;;5059303;28;20029;-91
2022/07/14 07:15:15;;;;;;;6.82;2.72;;;15.70;99.90;;;;;;5058582;28;20025;-92
2022/07/14 07:17:41;;;;;;;9.30;3.40;;;15.70;99.90;;;;;;5059253;28;20029;-93
2022/07/14 07:20:09;;;;;;;10.50;3.50;;;15.90;99.90;;;;;;5067577;28;20025;-91
2022/07/14 07:22:35;;;;;;;9.15;3.50;;;15.90;99.90;;;;;;5060056;28;20391;-90
2022/07/14 07:25:03;;;;;;;5.93;3.05;;;16.00;99.90;;;;;;5069021;28;20024;-92
2022/07/14 07:27:29;;;;;;;7.85;3.13;;;16.00;99.90;;;;;;5057366;28;20451;-91
2022/07/14 07:29:54;;;;;;;9.13;3.05;;;16.10;99.90;;;;;;5065901;28;20091;-91
2022/07/14 07:32:20;;;;;;;9.88;2.67;;;16.20;99.90;;;;;;5064339;28;20077;-92
2022/07/14 07:34:47;;;;;;;7.63;2.78;;;16.20;99.90;;;;;;5062472;28;20154;-91
2022/07/14 07:37:13;;;;;;;7.03;2.90;;;16.20;99.90;;;;;;5070121;28;20031;-91
2022/07/14 07:39:38;;;;;;;7.25;2.45;;;16.30;99.90;;;;;;5061452;28;20025;-93
2022/07/14 07:42:04;;;;;;;5.38;2.60;;;16.30;99.90;;;;;;5059361;28;20025;-90
2022/07/14 07:44:30;;;;;;;5.57;2.70;;;16.40;99.90;;;;;;5062013;28;20040;-91
2022/07/14 07:46:56;;;;;;;6.75;2.80;;;16.30;99.90;;;;;;5064161;28;20032;-91
2022/07/14 07:49:23;;;;;;;10.27;3.00;;;16.20;99.90;;;;;;5068381;28;20032;-88
2022/07/14 07:51:49;;;;;;;8.80;3.30;;;16.10;99.90;;;;;;5075765;28;20021;-89
2022/07/14 07:54:15;;;;;;;10.52;4.57;;;16.00;99.90;;;;;;5065120;28;20034;-90
2022/07/14 07:56:40;;;;;;;7.93;3.40;;;16.00;99.90;;;;;;5061504;28;20071;-92
2022/07/14 07:59:07;;;;;;;5.28;2.72;;;16.00;99.90;;;;;;5055347;28;20072;-93
2022/07/14 08:01:33;;;;;;;6.03;3.03;;;16.00;99.90;;;;;;5055721;28;20024;-93
2022/07/14 08:03:59;;;;;;;8.48;3.20;;;16.00;99.90;;;;;;5054454;28;20039;-92
2022/07/14 08:06:24;;;;;;;10.02;3.10;;;16.00;99.90;;;;;;5056119;28;20024;-93
2022/07/14 08:08:50;;;;;;;11.35;3.03;;;16.00;99.90;;;;;;5054441;28;20120;-92
2022/07/14 08:11:16;;;;;;;5.80;2.85;;;16.10;99.90;;;;;;5058286;28;20021;-92
2022/07/14 08:13:41;;;;;;;12.05;3.75;;;16.10;99.90;;;;;;5058097;28;20032;-92
2022/07/14 08:16:07;;;;;;;7.55;3.53;;;16.20;99.90;;;;;;5057269;28;20047;-91
2022/07/14 08:18:33;;;;;;;4.10;2.70;;;16.30;99.90;;;;;;5057732;28;20070;-91
2022/07/14 08:20:59;;;;;;;6.13;2.72;;;16.40;99.90;;;;;;5057905;28;20703;-93
2022/07/14 08:23:26;;;;;;;7.40;3.08;;;16.40;99.90;;;;;;5053080;28;20112;-92
2022/07/14 08:25:52;;;;;;;8.80;2.63;;;16.50;99.90;;;;;;5053385;28;20029;-92
2022/07/14 08:28:18;;;;;;;7.75;3.05;;;16.50;99.90;;;;;;5052541;28;20404;-92
2022/07/14 08:30:44;;;;;;;9.15;2.67;;;16.70;99.90;;;;;;5052110;28;20170;-93
2022/07/14 08:33:10;;;;;;;8.18;2.40;;;16.90;99.90;;;;;;5056436;28;20029;-92
2022/07/14 08:35:37;;;;;;;6.55;2.78;;;17.10;99.90;;;;;;5059519;28;20021;-93
2022/07/14 08:38:03;;;;;;;7.78;2.22;;;17.40;99.90;;;;;;5075235;28;20039;-93
2022/07/14 08:40:29;;;;;;;8.10;2.17;;;17.70;99.90;;;;;;5076856;28;20017;-90
2022/07/14 08:42:56;;;;;;;4.85;2.33;;;17.80;99.90;;;;;;5070479;28;20100;-92
2022/07/14 08:45:25;;;;;;;8.63;2.20;;;17.80;99.90;;;;;;5057920;28;20049;-92
2022/07/14 08:47:52;;;;;;;6.43;1.75;;;17.70;99.90;;;;;;5058057;28;20052;-91
2022/07/14 08:50:21;;;;;;;9.18;2.00;;;17.60;99.90;;;;;;5061471;28;20025;-91
2022/07/14 08:52:48;;;;;;;8.57;2.28;;;17.50;99.80;;;;;;5059221;28;20025;-93
2022/07/14 08:55:16;;;;;;;5.07;2.30;;;17.40;99.90;;;;;;5058023;28;20097;-91
2022/07/14 08:57:42;;;;;;;8.13;2.03;;;17.30;99.90;;;;;;5056623;28;20029;-90
2022/07/14 09:00:12;;;;;;;11.43;2.45;;;17.20;99.90;;;;;;5059285;28;20045;-91
2022/07/14 09:02:39;;;;;;;9.35;2.30;;;17.20;99.90;;;;;;5053440;28;20025;-92
2022/07/14 09:05:06;;;;;;;10.88;2.30;;;17.30;99.90;;;;;;5050825;28;20108;-91
2022/07/14 09:07:37;;;;;;;5.72;2.00;;;17.40;99.90;;;;;;5053284;28;20037;-91
2022/07/14 09:10:09;;;;;;;7.32;2.45;;;17.60;99.80;;;;;;5053244;28;20594;-91
2022/07/14 09:12:36;;;;;;;6.80;1.77;;;17.70;99.20;;;;;;5054339;28;20017;-92
2022/07/14 09:17:55;;;;;;;7.47;1.90;;;17.70;97.50;;;;;;5051992;28;20032;-91
2022/07/14 09:20:23;;;;;;;8.00;2.05;;;17.70;97.30;;;;;;5052735;28;20036;-89
2022/07/14 09:22:55;;;;;;;9.38;1.80;;;17.70;96.90;;;;;;5056537;28;20029;-92
2022/07/14 09:25:21;;;;;;;7.43;1.70;;;17.60;96.30;;;;;;5054010;28;20079;-92
2022/07/14 09:27:47;;;;;;;7.47;1.58;;;17.50;95.50;;;;;;5053552;28;20478;-92
2022/07/14 09:30:14;;;;;;;9.63;1.45;;;17.40;94.90;;;;;;5055582;28;20028;-91
2022/07/14 09:32:52;;;;;;;5.65;1.60;;;17.20;94.30;;;;;;5056065;28;20052;-93
2022/07/14 09:35:21;;;;;;;7.50;1.30;;;17.10;94.30;;;;;;5064840;28;20732;-91
2022/07/14 09:37:47;;;;;;;4.65;1.60;;;17.00;94.00;;;;;;5057710;28;20043;-91
2022/07/14 09:40:25;;;;;;;4.75;1.30;;;16.90;93.90;;;;;;5057441;28;20035;-93
2022/07/14 09:43:06;;;;;;;7.10;1.73;;;16.80;93.90;;;;;;5064371;28;20020;-92
2022/07/14 09:45:50;;;;;;;3.85;1.17;;;16.70;93.60;;;;;;5068157;28;20082;-92
2022/07/14 09:48:20;;;;;;;2.75;1.30;;;16.60;93.60;;;;;;5063711;28;20043;-92
2022/07/14 09:51:00;;;;;;;4.70;1.23;;;16.60;93.80;;;;;;5058794;28;20031;-93
2022/07/14 09:53:36;;;;;;;3.60;1.27;;;16.60;93.80;;;;;;5080487;28;20020;-93
2022/07/14 09:56:06;;;;;;;6.93;1.52;;;16.60;93.80;;;;;;5055823;28;20028;-93
2022/07/14 09:58:56;;;;;;;4.03;1.30;;;16.70;93.80;;;;;;5056076;28;20129;-94
2022/07/14 10:01:24;;;;;;;4.22;1.13;;;16.80;93.50;;;;;;5061464;28;20092;-93
2022/07/14 10:03:53;;;;;;;6.50;1.48;;;16.90;93.30;;;;;;5055899;28;20078;-94
2022/07/14 10:06:21;;;;;;;3.65;1.30;;;17.00;93.00;;;;;;5073983;28;20032;-93
2022/07/14 10:08:54;;;;;;;2.30;1.20;;;17.20;92.70;;;;;;5057020;28;20032;-92
2022/07/14 10:11:20;;;;;;;3.95;1.33;;;17.40;92.20;;;;;;5063387;28;20031;-90
2022/07/14 10:13:47;;;;;;;4.72;1.10;;;17.60;91.70;;;;;;5069937;28;20013;-93
2022/07/14 10:16:14;;;;;;;3.58;1.10;;;17.80;91.20;;;;;;5059773;28;20069;-91
2022/07/14 10:18:42;;;;;;;5.70;1.15;;;18.10;90.70;;;;;;5055631;28;20141;-92
2022/07/14 10:21:10;;;;;;;2.92;1.40;;;18.30;90.10;;;;;;5034315;28;20029;-93
2022/07/14 10:23:37;;;;;;;7.50;0.90;;;18.50;88.60;;;;;;5059579;28;20025;-91
2022/07/14 10:26:05;;;;;;;5.50;1.27;;;18.50;87.40;;;;;;5057735;28;20035;-91
2022/07/14 10:28:32;;;;;;;4.68;1.13;;;18.50;85.80;;;;;;5057157;28;20127;-93
2022/07/14 10:31:20;;;;;;;5.57;1.30;;;18.50;84.90;;;;;;5073125;28;20070;-94
2022/07/14 10:34:06;;;;;;;7.15;1.40;;;18.40;84.20;;;;;;5053668;28;20043;-93
2022/07/14 10:37:09;;;;;;;4.30;1.35;;;18.30;84.10;;;;;;5065992;28;20112;-92
2022/07/14 10:39:59;;;;;;;5.88;1.23;;;18.30;83.90;;;;;;5054458;28;20025;-91
2022/07/14 10:42:32;;;;;;;2.80;1.40;;;18.30;83.70;;;;;;5053469;28;20029;-91
2022/07/14 10:45:01;;;;;;;5.25;1.30;;;18.30;83.40;;;;;;5054806;28;20130;-92
2022/07/14 10:47:45;;;;;;;5.38;1.13;;;18.40;83.20;;;;;;5062200;28;20021;-90
2022/07/14 10:50:20;;;;;;;4.60;1.20;;;18.40;82.90;;;;;;5054902;28;20021;-91
2022/07/14 10:52:53;;;;;;;5.68;1.65;;;18.40;83.00;;;;;;5053314;28;20066;-92
2022/07/14 10:55:22;;;;;;;4.97;1.33;;;18.50;83.20;;;;;;5062639;28;20021;-89
2022/07/14 10:58:00;;;;;;;1.95;0.75;;;18.60;83.30;;;;;;5070734;28;20028;-90
2022/07/14 11:00:44;;;;;;;5.05;1.35;;;18.90;82.20;;;;;;5065781;28;20108;-91
2022/07/14 11:03:39;;;;;;;2.75;1.45;;;19.10;80.50;;;;;;5056216;28;20032;-91
2022/07/14 11:06:08;;;;;;;3.65;1.10;;;19.60;79.30;;;;;;5055622;28;20111;-92
2022/07/14 11:08:36;;;;;;;2.28;0.90;;;19.80;77.90;;;;;;5055185;28;20053;-92
2022/07/14 11:11:08;;;;;;;4.68;0.90;;;20.00;76.80;;;;;;5059091;28;20088;-93
2022/07/14 11:13:35;;;;;;;1.30;0.90;;;20.00;75.50;;;;;;5058808;28;20028;-93
2022/07/14 11:16:03;;;;;;;2.83;0.93;;;20.10;74.90;;;;;;5056855;28;20277;-93
2022/07/14 11:18:42;;;;;;;5.32;1.05;;;20.10;74.10;;;;;;5056640;28;20024;-92
2022/07/14 11:21:16;;;;;;;5.78;0.85;;;20.10;73.90;;;;;;5058721;28;20039;-92
2022/07/14 11:23:51;;;;;;;2.60;0.80;;;20.20;73.90;;;;;;5056874;28;20044;-91
2022/07/14 11:26:50;;;;;;;4.25;0.82;;;20.40;73.40;;;;;;5053652;28;20028;-92
2022/07/14 11:29:36;;;;;;;2.20;0.90;;;20.50;72.50;;;;;;5000749;28;20045;-91
2022/07/14 11:32:01;;;;;;;7.22;1.02;;;20.40;70.80;;;;;;5024378;28;20029;-91
2022/07/14 11:37:15;;;;;;;11.73;1.20;;;20.20;71.30;;;;;;5033769;28;20091;-91
2022/07/14 11:39:44;;;;;;;3.30;1.10;;;20.10;71.90;;;;;;5035260;28;20032;-92
2022/07/14 11:42:11;;;;;;;3.83;1.27;;;20.40;72.50;;;;;;5016717;28;20072;-93
2022/07/14 11:44:40;;;;;;;3.35;1.10;;;20.60;72.40;;;;;;5039602;28;20060;-91
2022/07/14 11:47:23;;;;;;;3.15;1.00;;;20.80;71.50;;;;;;5035960;28;20032;-92
2022/07/14 11:50:05;;;;;;;6.75;1.05;;;21.10;70.60;;;;;;5028095;28;20033;-90
2022/07/14 11:52:33;;;;;;;2.50;1.08;;;21.50;70.50;;;;;;5029804;28;20029;-91
2022/07/14 11:55:05;;;;;;;3.22;1.10;;;21.60;69.50;;;;;;5032034;28;20481;-92
2022/07/14 11:57:31;;;;;;;5.05;1.20;;;21.50;69.30;;;;;;5035819;28;20618;-91
2022/07/14 12:00:09;;;;;;;5.68;1.08;;;21.30;69.30;;;;;;5037749;28;20080;-91
2022/07/14 12:02:55;;;;;;;1.73;0.80;;;21.30;68.30;;;;;;5046363;28;20029;-89
2022/07/14 12:05:26;;;;;;;5.03;0.95;;;21.40;67.90;;;;;;5035628;28;20119;-91
2022/07/14 12:07:53;;;;;;;4.38;1.50;;;21.50;67.50;;;;;;5038861;28;20092;-90
2022/07/14 12:10:36;;;;;;;4.75;0.80;;;21.70;67.10;;;;;;5029787;28;20079;-89
2022/07/14 12:13:03;;;;;;;5.72;1.20;;;21.70;66.80;;;;;;5034701;28;20488;-93
2022/07/14 12:15:30;;;;;;;5.65;1.10;;;21.70;66.70;;;;;;5038071;28;20021;-91
2022/07/14 12:17:56;;;;;;;2.85;1.10;;;21.70;66.70;;;;;;5038751;28;20061;-91
2022/07/14 12:20:22;;;;;;;2.55;1.13;;;21.80;66.40;;;;;;5037536;28;20069;-92
2022/07/14 12:22:55;;;;;;;3.65;1.17;;;21.90;66.20;;;;;;5035821;28;20040;-92
2022/07/14 12:25:25;;;;;;;4.57;1.00;;;22.00;65.80;;;;;;5035169;28;20029;-92
2022/07/14 12:27:51;;;;;;;5.95;1.30;;;22.20;65.80;;;;;;5036669;28;20098;-93
2022/07/14 12:30:17;;;;;;;3.40;1.10;;;22.50;65.80;;;;;;5058662;28;20047;-92
2022/07/14 12:32:42;;;;;;;2.88;1.08;;;22.80;65.00;;;;;;5081731;28;20387;-93
2022/07/14 12:35:08;;;;;;;4.68;1.15;;;23.10;64.30;;;;;;5053060;28;20162;-93
2022/07/14 12:37:35;;;;;;;2.88;1.00;;;23.20;63.80;;;;;;5059115;28;20040;-93
2022/07/14 12:40:01;;;;;;;5.40;1.15;;;23.10;63.00;;;;;;5057469;28;20028;-92
2022/07/14 12:42:28;;;;;;;1.77;0.70;;;22.90;62.90;;;;;;5073721;28;20009;-89
2022/07/14 12:45:02;;;;;;;4.65;0.93;;;22.70;63.10;;;;;;5070515;28;20089;-91
2022/07/14 12:47:28;;;;;;;4.18;0.75;;;22.40;62.70;;;;;;5078849;28;20054;-91
2022/07/14 12:49:54;;;;;;;2.95;0.60;;;22.40;62.60;;;;;;5067768;28;20036;-91
2022/07/14 12:52:20;;;;;;;2.72;1.00;;;22.50;61.30;;;;;;5075277;28;20124;-91
2022/07/14 12:54:46;;;;;;;4.03;0.80;;;22.40;60.90;;;;;;5070135;28;20032;-93
2022/07/14 12:57:21;;;;;;;3.03;0.90;;;22.30;61.40;;;;;;5067537;28;20046;-93
2022/07/14 12:59:47;;;;;;;3.17;0.93;;;22.10;62.80;;;;;;5060592;28;20510;-91
2022/07/14 13:02:29;;;;;;;6.03;1.05;;;21.90;62.70;;;;;;5059394;28;20032;-92
2022/07/14 13:05:02;;;;;;;1.55;1.00;;;21.90;63.40;;;;;;5062166;28;20028;-94